Deedsville, IN (46921)

9:59 AM EST on December 22, 2014 (GMT -0500)
South of RoAnn, In. | Change Station
CLOSE
Current Station
Personal Weather Station
Location: Wabash, IN
Elevation: 769 ft
Nearby Weather Stations

Elev 769 ft 40.89 °N, 85.92 °W | Updated 39 seconds ago

Overcast
Overcast
30.5 °F
Feels Like 30 °F
N
2.0
Wind Variable Wind from ESE
Gusts 4.0 mph

Today
High -- | Low -- °F
--% Chance of Precip.
Yesterday
High -- | Low -- °F
Precip. -- in
8:06 AM 5:20 PM
New Moon, 0% visible
Pressure 29.95 in
Visibility 5.0 miles
Clouds Mostly Cloudy 5000 ft
Windchill 30 °F
Dew Point 28 °F
Humidity 91%
Rainfall 0.00 in
Snow Depth Not available.
UV 0 out of 12
Pollen .10 out of 12
Air Quality Not available.
Flu Activity Not available.
METAR KRCR 221435Z AUTO 11009KT 5SM BR BKN050 00/M01 A2995 RMK AO2

More Conditions Fewer Conditions

Pressure 29.95 in
Visibility 5.0 miles
Clouds Mostly Cloudy 5000 ft
Windchill 30 °F
Dew Point 28 °F
Humidity 91%
Rainfall 0.00 in
Snow Depth Not available.
UV 0 out of 12
Pollen .10 out of 12
Air Quality Not available.
Flu Activity Not available.
METAR KRCR 221435Z AUTO 11009KT 5SM BR BKN050 00/M01 A2995 RMK AO2

More Conditions Fewer Conditions

10-Day Weather Forecast

Almanac

Astronomy

Dec. 22, 2014 Rise Set
Actual Time
Civil Twilight
Nautical Twilight
Astronomical Twilight
Moon
Length of Visible Light
Length of Day
Tomorrow will be .
, % of the Moon is Illuminated

Today's Extremes

State Highs State Lows

Community

WunderPhotos

Upload Photos

1,779,608 photos uploaded!

WunderBlogs® & News

Nearby

Air Quality

  Air Quality AQ Index Pollutant
Not available.

Snow Depth

Station Depth Elevation

Earthquake Activity

City Distance Mag. Time & Date
Minimum magnitude displayed is 2.5.

Coastal Water Temperatures

Place Temperature

Nearby Weather Stations